Time;durP1;ratioP1;P1;durP2;ratioP2;P2;SDS_P1;SDS_P2;PMS_P1;PMS_P2;Temp;Humidity;BMP_temperature;BMP_pressure;BME280_temperature;BME280_humidity;BME280_pressure;Samples;Min_cycle;Max_cycle;Signal;HPM_P1;HPM_P2
2022/10/16 00:01:28;;;;;;;3.58;1.83;;;;;;;21.00;100.00;96334.06;4961537;28;20097;-45
2022/10/16 00:03:58;;;;;;;4.60;2.00;;;;;;;20.80;100.00;96338.66;4964999;28;20089;-47
2022/10/16 00:06:27;;;;;;;;;;;;;;;21.01;100.00;96330.31;4968062;28;20089;-43
2022/10/16 00:08:55;;;;;;;3.55;1.90;;;;;;;20.32;100.00;96329.06;4966009;28;19965;-46
2022/10/16 00:11:26;;;;;;;2.38;1.90;;;;;;;20.87;100.00;96336.78;4962420;28;20085;-48
2022/10/16 00:13:57;;;;;;;2.47;1.88;;;;;;;20.82;100.00;96340.13;4965135;28;20139;-49
2022/10/16 00:16:26;;;;;;;5.55;2.13;;;;;;;20.55;100.00;96344.72;4965416;28;20075;-44
2022/10/16 00:18:54;;;;;;;3.78;1.90;;;;;;;20.65;100.00;96349.66;4968993;28;20059;-52
2022/10/16 00:21:26;;;;;;;3.88;1.80;;;;;;;21.08;100.00;96349.88;4963949;28;21998;-46
2022/10/16 00:23:56;;;;;;;10.05;2.28;;;;;;;21.07;100.00;96347.44;4964538;28;20086;-50
2022/10/16 00:26:34;;;;;;;3.17;1.95;;;;;;;21.26;100.00;96346.50;4962677;28;20564;-50
2022/10/16 00:29:02;;;;;;;3.42;1.80;;;;;;;20.99;100.00;96353.88;4963710;28;20078;-45
2022/10/16 00:31:31;;;;;;;3.35;2.00;;;;;;;20.79;100.00;96343.22;4965728;28;20085;-46
2022/10/16 00:34:00;;;;;;;5.10;1.88;;;;;;;20.43;100.00;96350.91;4966054;28;20105;-47
2022/10/16 00:36:30;;;;;;;3.00;1.80;;;;;;;19.15;100.00;96351.00;4965596;28;20070;-46
2022/10/16 00:39:00;;;;;;;4.38;2.03;;;;;;;19.81;100.00;96340.44;4967244;28;20086;-46
2022/10/16 00:41:33;;;;;;;5.45;1.70;;;;;;;20.00;100.00;96336.13;4970302;28;20082;-44
2022/10/16 00:44:04;;;;;;;3.65;1.80;;;;;;;20.63;100.00;96333.78;4971143;28;20488;-47
2022/10/16 00:46:38;;;;;;;3.97;1.75;;;;;;;20.80;100.00;96338.66;4968980;28;20078;-51
2022/10/16 00:49:09;;;;;;;2.22;1.63;;;;;;;20.85;100.00;96330.81;4966705;28;20086;-50
2022/10/16 00:51:40;;;;;;;3.33;2.25;;;;;;;20.86;100.00;96341.31;4967648;28;20101;-48
2022/10/16 00:54:13;;;;;;;3.58;1.80;;;;;;;20.76;100.00;96342.81;4964836;28;20492;-52
2022/10/16 00:56:41;;;;;;;3.30;1.92;;;;;;;21.02;100.00;96349.91;4963478;28;20085;-46
2022/10/16 00:59:14;;;;;;;3.70;1.75;;;;;;;21.14;100.00;96340.19;4964530;28;20090;-49
2022/10/16 01:01:42;;;;;;;3.47;1.60;;;;;;;21.07;100.00;96348.25;4967185;28;20478;-48
2022/10/16 01:04:10;;;;;;;6.22;1.65;;;;;;;21.15;100.00;96349.03;4966634;28;20093;-49
2022/10/16 01:06:45;;;;;;;3.13;1.80;;;;;;;21.04;100.00;96345.19;4966600;28;20086;-48
2022/10/16 01:09:17;;;;;;;2.13;1.70;;;;;;;21.21;100.00;96357.06;4966199;28;20094;-45
2022/10/16 01:11:50;;;;;;;2.80;1.60;;;;;;;21.22;100.00;96357.88;4965715;28;20078;-47
2022/10/16 01:14:23;;;;;;;3.38;1.70;;;;;;;21.14;100.00;96350.91;4965630;28;20082;-46
2022/10/16 01:16:56;;;;;;;3.10;1.75;;;;;;;21.01;100.00;96359.81;4966018;28;20083;-49
2022/10/16 01:19:37;;;;;;;2.05;1.70;;;;;;;21.13;100.00;96353.78;4964887;28;20097;-47
2022/10/16 01:22:08;;;;;;;3.17;1.80;;;;;;;21.12;100.00;96354.81;4965881;28;20093;-49
2022/10/16 01:24:40;;;;;;;3.47;1.63;;;;;;;20.75;100.00;96370.63;4967742;28;20085;-45
2022/10/16 01:27:12;;;;;;;3.05;1.80;;;;;;;21.04;100.00;96366.63;4959567;28;20526;-49
2022/10/16 01:29:46;;;;;;;2.85;1.65;;;;;;;21.11;100.00;96359.38;4969812;28;20447;-44
2022/10/16 01:32:18;;;;;;;2.80;1.70;;;;;;;21.12;100.00;96361.00;4962271;28;20082;-51
2022/10/16 01:34:52;;;;;;;5.10;1.70;;;;;;;21.13;100.00;96370.72;4967437;28;20074;-49
2022/10/16 01:37:26;;;;;;;3.83;1.85;;;;;;;21.18;100.00;96370.06;4967156;28;20078;-45
2022/10/16 01:39:57;;;;;;;3.40;1.92;;;;;;;20.95;100.00;96367.88;4971103;28;20082;-44
2022/10/16 01:42:30;;;;;;;4.83;1.53;;;;;;;21.01;100.00;96362.50;4966987;28;20074;-46
2022/10/16 01:44:59;;;;;;;3.15;1.70;;;;;;;20.57;100.00;96353.34;4971050;28;20101;-44
2022/10/16 01:47:28;;;;;;;4.32;1.80;;;;;;;20.40;100.00;96368.19;4967465;28;20066;-45
2022/10/16 01:49:58;;;;;;;10.73;1.83;;;;;;;20.87;100.00;96347.50;4965119;28;20534;-43
2022/10/16 01:52:28;;;;;;;4.70;2.00;;;;;;;20.56;100.00;96353.59;4966714;28;20541;-44
2022/10/16 01:54:57;;;;;;;6.22;1.60;;;;;;;20.25;100.00;96360.41;4963511;28;20089;-46
2022/10/16 01:57:28;;;;;;;6.38;1.70;;;;;;;20.61;100.00;96357.28;4966196;28;20079;-49
2022/10/16 01:59:57;;;;;;;;;;;;;;;21.01;100.00;96362.50;4966705;28;20103;-47
2022/10/16 02:02:27;;;;;;;4.68;1.60;;;;;;;20.68;100.00;96356.44;4963379;28;19965;-44
2022/10/16 02:04:58;;;;;;;;;;;;;;;20.57;100.00;96366.75;4968868;28;20097;-50
2022/10/16 02:07:26;;;;;;;3.22;1.73;;;;;;;20.56;100.00;96359.75;4963829;28;20435;-50
2022/10/16 02:09:55;;;;;;;2.47;1.80;;;;;;;20.81;100.00;96353.72;4969133;28;20078;-48
2022/10/16 02:12:28;;;;;;;3.85;1.80;;;;;;;20.97;100.00;96345.19;4965129;28;20079;-46
2022/10/16 02:14:57;;;;;;;3.50;1.70;;;;;;;20.95;100.00;96341.91;4967840;28;20061;-47
2022/10/16 02:17:26;;;;;;;3.35;1.80;;;;;;;20.85;100.00;96344.19;4964197;28;20457;-48
2022/10/16 02:19:55;;;;;;;4.65;1.77;;;;;;;20.97;100.00;96347.88;4964641;28;20085;-46
2022/10/16 02:22:28;;;;;;;4.40;1.70;;;;;;;20.77;100.00;96356.00;4965201;28;20148;-47
2022/10/16 02:24:59;;;;;;;2.85;1.63;;;;;;;20.82;100.00;96361.56;4966447;28;20087;-48
2022/10/16 02:27:35;;;;;;;4.53;1.75;;;;;;;20.89;100.00;96374.09;4967667;28;20086;-46
2022/10/16 02:30:08;;;;;;;2.80;1.65;;;;;;;20.89;100.00;96369.56;4965769;28;20086;-47
2022/10/16 02:32:39;;;;;;;3.47;1.80;;;;;;;20.77;100.00;96364.03;4962964;28;20094;-49
2022/10/16 02:35:07;;;;;;;;;;;;;;;20.64;100.00;96361.38;4966293;28;20564;-48
2022/10/16 02:37:36;;;;;;;3.95;2.28;;;;;;;19.87;100.00;96357.53;4963762;28;19978;-44
2022/10/16 02:40:06;;;;;;;4.15;2.28;;;;;;;19.80;100.00;96376.25;4966726;28;20113;-47
2022/10/16 02:42:36;;;;;;;3.10;1.70;;;;;;;20.36;100.00;96381.19;4964215;28;20477;-49
2022/10/16 02:45:05;;;;;;;;;;;;;;;20.14;100.00;96380.59;4965433;28;20875;-49
2022/10/16 02:47:33;;;;;;;1.98;1.70;;;;;;;19.88;100.00;96391.28;4967987;28;19956;-44
2022/10/16 02:50:02;;;;;;;6.20;2.00;;;;;;;20.03;100.00;96385.75;4967596;28;20090;-46
2022/10/16 02:52:30;;;;;;;4.40;1.90;;;;;;;19.35;100.00;96397.34;4965001;28;20529;-44
2022/10/16 02:54:58;;;;;;;5.35;1.63;;;;;;;19.09;100.00;96394.56;4963502;28;20449;-46
2022/10/16 02:57:27;;;;;;;3.50;1.75;;;;;;;18.23;100.00;96389.53;4964996;28;20082;-48
2022/10/16 02:59:57;;;;;;;3.83;2.47;;;;;;;17.94;100.00;96382.53;4963852;28;20828;-45
2022/10/16 03:02:25;;;;;;;3.17;1.73;;;;;;;18.03;100.00;96373.34;4961361;28;20094;-49
2022/10/16 03:04:53;;;;;;;2.33;1.85;;;;;;;18.65;100.00;96366.38;4963615;28;20082;-47
2022/10/16 03:07:22;;;;;;;2.83;2.00;;;;;;;18.54;100.00;96372.28;4963365;28;20081;-51
2022/10/16 03:09:50;;;;;;;4.57;2.10;;;;;;;19.38;100.00;96372.06;4966806;28;20501;-45
2022/10/16 03:12:19;;;;;;;2.95;1.90;;;;;;;19.72;100.00;96384.50;4968402;28;20089;-44
2022/10/16 03:14:48;;;;;;;3.63;2.00;;;;;;;19.84;100.00;96384.72;4967184;28;20051;-44
2022/10/16 03:17:17;;;;;;;4.07;2.10;;;;;;;19.60;100.00;96380.72;4968137;28;20059;-45
2022/10/16 03:19:46;;;;;;;8.20;2.40;;;;;;;19.35;100.00;96375.94;4965431;28;20093;-46
2022/10/16 03:22:14;;;;;;;4.18;2.20;;;;;;;19.65;100.00;96383.66;4961079;28;20090;-43
2022/10/16 03:24:42;;;;;;;2.80;2.03;;;;;;;19.63;100.00;96372.34;4963379;28;20704;-44
2022/10/16 03:27:10;;;;;;;4.20;2.00;;;;;;;19.80;100.00;96376.25;4964865;28;20082;-49
2022/10/16 03:29:38;;;;;;;4.25;1.92;;;;;;;19.71;100.00;96379.34;4961962;28;20082;-52
2022/10/16 03:32:07;;;;;;;2.72;1.90;;;;;;;19.75;100.00;96383.25;4963601;28;20082;-50
2022/10/16 03:34:36;;;;;;;5.63;2.20;;;;;;;19.81;100.00;96383.25;4963686;28;20083;-50
2022/10/16 03:37:04;;;;;;;3.80;2.00;;;;;;;19.80;100.00;96388.81;4963451;28;20151;-48
2022/10/16 03:39:33;;;;;;;2.25;1.95;;;;;;;19.84;100.00;96384.72;4963894;28;20082;-45
2022/10/16 03:42:01;;;;;;;2.70;1.73;;;;;;;19.69;100.00;96392.94;4964915;28;20094;-51
2022/10/16 03:44:29;;;;;;;5.90;2.22;;;;;;;19.37;100.00;96381.94;4962630;28;20083;-44
2022/10/16 03:46:57;;;;;;;2.67;2.00;;;;;;;19.57;100.00;96381.94;4963811;28;20077;-53
2022/10/16 03:49:26;;;;;;;3.47;1.75;;;;;;;19.64;100.00;96384.69;4964064;28;20553;-53
2022/10/16 03:51:55;;;;;;;3.17;1.83;;;;;;;19.78;100.00;96383.66;4965818;28;20075;-52
2022/10/16 03:54:23;;;;;;;2.08;1.88;;;;;;;19.65;100.00;96395.19;4962794;28;20086;-45
2022/10/16 03:56:51;;;;;;;3.88;1.85;;;;;;;19.68;100.00;96397.47;4964085;28;20177;-44
2022/10/16 03:59:20;;;;;;;2.72;1.95;;;;;;;19.86;100.00;96406.75;4962520;28;20070;-44
2022/10/16 04:01:48;;;;;;;2.80;1.92;;;;;;;19.93;100.00;96404.91;4961389;28;20488;-48
2022/10/16 04:04:16;;;;;;;5.35;1.80;;;;;;;19.90;100.00;96403.44;4962745;28;20090;-46
2022/10/16 04:06:45;;;;;;;4.97;1.85;;;;;;;19.93;100.00;96412.94;4966839;28;20083;-46
2022/10/16 04:09:14;;;;;;;2.33;1.50;;;;;;;19.67;100.00;96416.38;4964952;28;20079;-49
2022/10/16 04:11:43;;;;;;;1.88;1.65;;;;;;;19.53;100.00;96410.13;4963543;28;20671;-45
2022/10/16 04:14:11;;;;;;;2.70;1.80;;;;;;;19.57;100.00;96400.69;4968674;28;20094;-51
2022/10/16 04:16:39;;;;;;;4.55;1.90;;;;;;;19.79;100.00;96405.91;4967307;28;20078;-50
2022/10/16 04:19:07;;;;;;;2.05;1.70;;;;;;;19.83;100.00;96402.63;4966808;28;20082;-50
2022/10/16 04:21:36;;;;;;;2.45;1.90;;;;;;;19.78;100.00;96406.94;4968759;28;20082;-51
2022/10/16 04:24:04;;;;;;;2.60;1.90;;;;;;;19.72;100.00;96405.06;4967358;28;20083;-50
2022/10/16 04:26:34;;;;;;;4.70;2.10;;;;;;;20.09;100.00;96399.13;4966688;28;20078;-45
2022/10/16 04:29:02;;;;;;;4.83;3.20;;;;;;;19.89;100.00;96409.84;4966786;28;20537;-49
2022/10/16 04:31:30;;;;;;;4.05;1.80;;;;;;;20.02;100.00;96409.00;4966068;28;20098;-49
2022/10/16 04:33:59;;;;;;;1.70;1.60;;;;;;;20.21;100.00;96403.88;4968179;28;20082;-46
2022/10/16 04:36:27;;;;;;;5.53;1.92;;;;;;;20.04;100.00;96406.13;4968808;28;20505;-46
2022/10/16 04:38:56;;;;;;;3.35;2.10;;;;;;;20.02;100.00;96400.97;4967168;28;20090;-52
2022/10/16 04:41:24;;;;;;;3.45;2.00;;;;;;;20.15;100.00;96395.63;4964136;28;20086;-47
2022/10/16 04:43:54;;;;;;;3.00;2.20;;;;;;;20.06;100.00;96393.34;4964704;28;20078;-45
2022/10/16 04:46:22;;;;;;;2.97;1.73;;;;;;;19.17;100.00;96389.88;4967246;28;20067;-46
2022/10/16 04:48:51;;;;;;;2.60;1.75;;;;;;;18.83;100.00;96393.44;4964632;28;20078;-51
2022/10/16 04:51:19;;;;;;;4.43;1.60;;;;;;;18.66;100.00;96398.25;4968304;28;20089;-50
2022/10/16 04:53:48;;;;;;;1.90;1.60;;;;;;;19.71;100.00;96400.75;4969685;28;20090;-48
2022/10/16 04:56:16;;;;;;;3.05;1.50;;;;;;;19.88;100.00;96410.03;4966347;28;20089;-44
2022/10/16 04:58:45;;;;;;;2.15;1.70;;;;;;;20.03;100.00;96410.69;4965609;28;20078;-46
2022/10/16 05:01:14;;;;;;;3.08;1.80;;;;;;;20.24;100.00;96411.50;4966384;28;20730;-51
2022/10/16 05:03:42;;;;;;;3.90;2.13;;;;;;;20.28;100.00;96412.72;4967516;28;20070;-49
2022/10/16 05:06:11;;;;;;;2.33;1.60;;;;;;;20.06;100.00;96415.63;4959850;28;20560;-50
2022/10/16 05:08:39;;;;;;;3.65;1.40;;;;;;;19.83;100.00;96416.00;4968585;28;20089;-46
2022/10/16 05:11:07;;;;;;;3.10;1.40;;;;;;;20.02;100.00;96408.19;4961506;28;20086;-47
2022/10/16 05:13:35;;;;;;;2.03;1.65;;;;;;;19.79;100.00;96405.91;4966192;28;20091;-49
2022/10/16 05:16:04;;;;;;;4.03;1.70;;;;;;;19.52;100.00;96403.16;4965935;28;20121;-49
2022/10/16 05:18:33;;;;;;;4.38;1.75;;;;;;;19.89;100.00;96406.34;4966156;28;20070;-46
2022/10/16 05:21:02;;;;;;;5.60;1.77;;;;;;;19.24;100.00;96397.13;4966708;28;20093;-46
2022/10/16 05:23:30;;;;;;;3.03;1.85;;;;;;;19.88;100.00;96391.28;4966211;28;20088;-44
2022/10/16 05:25:59;;;;;;;3.38;1.80;;;;;;;19.94;100.00;96392.34;4963175;28;20078;-46
2022/10/16 05:28:28;;;;;;;2.38;1.95;;;;;;;19.97;100.00;96400.78;4965707;28;20075;-53
2022/10/16 05:30:57;;;;;;;3.05;1.70;;;;;;;19.97;100.00;96399.97;4961781;28;20078;-50
2022/10/16 05:33:26;;;;;;;2.45;1.90;;;;;;;20.04;100.00;96393.56;4966197;28;20071;-45
2022/10/16 05:35:56;;;;;;;3.13;1.90;;;;;;;20.17;100.00;96400.78;4967554;28;20483;-45
2022/10/16 05:38:24;;;;;;;2.20;1.90;;;;;;;19.92;100.00;96408.59;4963656;28;20086;-52
2022/10/16 05:40:53;;;;;;;3.20;2.10;;;;;;;20.20;100.00;96411.09;4966876;28;20170;-49
2022/10/16 05:43:21;;;;;;;2.13;1.90;;;;;;;20.20;100.00;96421.81;4965791;28;20086;-49
2022/10/16 05:45:55;;;;;;;4.60;1.95;;;;;;;20.17;100.00;96424.06;4966235;28;20070;-44
2022/10/16 05:48:23;;;;;;;2.00;1.80;;;;;;;19.71;100.00;96438.19;4967496;28;20082;-47
2022/10/16 05:50:59;;;;;;;3.55;1.70;;;;;;;19.91;100.00;96434.53;4966703;28;20074;-45
2022/10/16 05:53:28;;;;;;;4.03;2.00;;;;;;;19.60;100.00;96428.88;4964469;28;20085;-47
2022/10/16 05:55:57;;;;;;;4.57;1.90;;;;;;;19.97;100.00;96430.22;4964318;28;20086;-51
2022/10/16 05:58:26;;;;;;;3.53;1.75;;;;;;;19.17;100.00;96443.34;4965415;28;20796;-53
2022/10/16 06:00:56;;;;;;;3.58;1.90;;;;;;;19.76;100.00;96439.25;4964310;28;20078;-45
2022/10/16 06:03:24;;;;;;;2.17;1.90;;;;;;;19.98;100.00;96437.22;4963661;28;20089;-46
2022/10/16 06:05:53;;;;;;;3.30;2.33;;;;;;;20.01;100.00;96430.63;4964241;28;20482;-44
2022/10/16 06:08:24;;;;;;;4.55;2.30;;;;;;;20.18;100.00;96426.53;4966116;28;20082;-50
2022/10/16 06:11:01;;;;;;;6.03;2.35;;;;;;;20.12;100.00;96430.84;4967655;28;20074;-49
2022/10/16 06:13:30;;;;;;;2.10;1.90;;;;;;;19.76;100.00;96430.41;4962689;28;20175;-44
2022/10/16 06:15:59;;;;;;;2.47;2.15;;;;;;;20.13;100.00;96445.91;4964935;28;20094;-47
2022/10/16 06:18:27;;;;;;;4.00;2.20;;;;;;;20.21;100.00;96434.16;4965593;28;20494;-45
2022/10/16 06:20:56;;;;;;;4.40;2.90;;;;;;;20.50;100.00;96450.81;4962425;28;20074;-49
2022/10/16 06:23:29;;;;;;;3.53;2.67;;;;;;;20.60;100.00;96454.75;4966714;28;20082;-51
2022/10/16 06:26:05;;;;;;;2.85;2.65;;;;;;;20.53;100.00;96453.13;4964785;28;20070;-52
2022/10/16 06:28:33;;;;;;;5.68;3.15;;;;;;;20.41;100.00;96460.13;4968326;28;20093;-48
2022/10/16 06:31:08;;;;;;;6.25;3.08;;;;;;;20.49;100.00;96460.72;4967461;28;20071;-48
2022/10/16 06:33:52;;;;;;;4.82;2.58;;;;;;;20.47;100.00;96470.81;4965035;28;20054;-49
2022/10/16 06:36:20;;;;;;;;;;;;;;;20.66;100.00;96461.16;4966643;28;20473;-44
2022/10/16 06:38:50;;;;;;;3.38;2.40;;;;;;;20.60;100.00;96470.03;4966365;28;19956;-45
2022/10/16 06:41:20;;;;;;;2.55;2.10;;;;;;;20.65;100.00;96480.94;4965104;28;20090;-47
2022/10/16 06:43:49;;;;;;;4.75;2.38;;;;;;;20.67;100.00;96483.41;4966459;28;20081;-47
2022/10/16 06:46:18;;;;;;;2.53;2.05;;;;;;;20.59;100.00;96482.59;4963316;28;20105;-49
2022/10/16 06:48:47;;;;;;;9.55;2.20;;;;;;;20.44;100.00;96490.00;4965393;28;20169;-50
2022/10/16 06:51:17;;;;;;;3.10;1.98;;;;;;;20.47;100.00;96494.09;4963936;28;20078;-50
2022/10/16 06:53:47;;;;;;;4.60;2.13;;;;;;;20.70;100.00;96483.81;4965623;28;20066;-48
2022/10/16 06:56:32;;;;;;;3.10;1.80;;;;;;;20.91;100.00;96484.63;4964627;28;20083;-49
2022/10/16 06:59:01;;;;;;;;;;;;;;;21.23;100.00;96493.63;4965136;28;20094;-50
2022/10/16 07:01:29;;;;;;;2.13;1.92;;;;;;;21.00;100.00;96496.78;4963911;28;19965;-51
2022/10/16 07:03:57;;;;;;;2.53;2.10;;;;;;;20.86;100.00;96498.66;4967567;28;20086;-46
2022/10/16 07:06:27;;;;;;;2.28;2.08;;;;;;;21.11;100.00;96506.84;4965151;28;20082;-46
2022/10/16 07:08:55;;;;;;;3.95;2.00;;;;;;;21.05;100.00;96505.81;4961840;28;20081;-49
2022/10/16 07:11:24;;;;;;;3.72;1.88;;;;;;;21.26;100.00;96512.78;4964007;28;20085;-54
2022/10/16 07:13:54;;;;;;;5.50;2.10;;;;;;;21.32;100.00;96513.81;4965356;28;20082;-47
2022/10/16 07:16:23;;;;;;;;;;;;;;;21.59;100.00;96513.75;4965769;28;20090;-49
2022/10/16 07:18:57;;;;;;;4.20;1.98;;;;;;;21.30;100.00;96513.19;4963312;28;19960;-46
2022/10/16 07:21:27;;;;;;;3.25;2.00;;;;;;;21.58;100.00;96510.25;4960742;28;20086;-46
2022/10/16 07:23:58;;;;;;;3.15;2.10;;;;;;;21.85;100.00;96519.03;4966142;28;20145;-51
2022/10/16 07:26:27;;;;;;;3.55;2.10;;;;;;;21.93;100.00;96513.38;4962677;28;20071;-48
2022/10/16 07:28:57;;;;;;;3.80;3.10;;;;;;;22.03;100.00;96513.75;4963381;28;20082;-47
2022/10/16 07:31:26;;;;;;;4.40;3.40;;;;;;;22.15;100.00;96513.91;4962725;28;20090;-46
2022/10/16 07:33:55;;;;;;;4.55;3.58;;;;;;;22.14;100.00;96522.16;4964657;28;20087;-53
2022/10/16 07:36:23;;;;;;;3.58;3.22;;;;;;;22.41;100.00;96517.47;4964610;28;20090;-48
2022/10/16 07:38:51;;;;;;;3.72;3.20;;;;;;;22.70;100.00;96526.75;4966609;28;20074;-51
2022/10/16 07:41:25;;;;;;;4.03;2.30;;;;;;;22.07;100.00;96532.94;4964512;28;20536;-49
2022/10/16 07:43:54;;;;;;;3.20;2.17;;;;;;;22.54;100.00;96529.97;4966453;28;20108;-48
2022/10/16 07:46:24;;;;;;;3.63;1.98;;;;;;;22.88;100.00;96537.56;4964107;28;20097;-49
2022/10/16 07:48:53;;;;;;;3.17;1.70;;;;;;;22.93;100.00;96534.25;4956591;28;20082;-46
2022/10/16 07:51:22;;;;;;;2.28;1.90;;;;;;;23.15;100.00;96537.34;4963782;28;20793;-47
2022/10/16 07:53:51;;;;;;;2.80;1.77;;;;;;;23.50;100.00;96542.16;4961923;28;20102;-43
2022/10/16 07:56:19;;;;;;;2.45;1.92;;;;;;;23.22;100.00;96548.84;4961180;28;20462;-46
2022/10/16 07:58:49;;;;;;;3.60;1.95;;;;;;;22.82;100.00;96543.00;4961867;28;20097;-45
2022/10/16 08:01:18;;;;;;;2.65;1.67;;;;;;;23.75;100.00;96545.63;4963369;28;20142;-44
2022/10/16 08:03:49;;;;;;;4.68;1.85;;;;;;;23.97;100.00;96542.44;4964169;28;20101;-49
2022/10/16 08:06:17;;;;;;;3.95;1.70;;;;;;;23.66;100.00;96546.94;4966140;28;20127;-45
2022/10/16 08:08:52;;;;;;;2.88;2.00;;;;;;;23.73;100.00;96555.78;4966958;28;20078;-46
2022/10/16 08:11:20;;;;;;;3.47;2.13;;;;;;;23.25;100.00;96553.78;4964641;28;20075;-47
2022/10/16 08:13:48;;;;;;;2.15;1.80;;;;;;;23.86;100.00;96558.31;4967071;28;20081;-43
2022/10/16 08:16:17;;;;;;;1.95;1.70;;;;;;;24.39;100.00;96560.28;4965543;28;20089;-44
2022/10/16 08:18:45;;;;;;;2.05;1.65;;;;;;;23.34;100.00;96563.22;4965109;28;20106;-47
2022/10/16 08:21:17;;;;;;;2.53;1.70;;;;;;;24.02;100.00;96562.28;4965604;28;20089;-47
2022/10/16 08:23:48;;;;;;;2.53;1.70;;;;;;;23.98;100.00;96563.75;4965477;28;20086;-46
2022/10/16 08:26:24;;;;;;;2.40;1.90;;;;;;;24.49;100.00;96567.88;4964815;28;20091;-46
2022/10/16 08:28:52;;;;;;;3.35;2.03;;;;;;;23.79;100.00;96567.53;4968184;28;20458;-44
2022/10/16 08:31:21;;;;;;;3.42;1.80;;;;;;;24.47;100.00;96566.47;4966503;28;20099;-45
2022/10/16 08:33:49;;;;;;;5.32;2.05;;;;;;;25.10;100.00;96568.56;4968100;28;20085;-45
2022/10/16 08:36:19;;;;;;;4.43;1.70;;;;;;;24.48;100.00;96570.81;4964137;28;20497;-46
2022/10/16 08:38:49;;;;;;;2.70;1.92;;;;;;;25.33;100.00;96570.50;4968502;28;20085;-43
2022/10/16 08:41:48;;;;;;;3.03;2.00;;;;;;;24.23;100.00;96573.63;4960852;28;20075;-45
2022/10/16 08:44:28;;;;;;;2.88;1.90;;;;;;;24.51;100.00;96573.84;4966057;28;20533;-44
2022/10/16 08:47:03;;;;;;;2.72;2.00;;;;;;;25.72;100.00;96576.19;4963360;28;20094;-44
2022/10/16 08:49:32;;;;;;;3.17;2.17;;;;;;;25.37;100.00;96579.75;4961132;28;20083;-43
2022/10/16 08:52:01;;;;;;;2.88;1.75;;;;;;;25.89;95.55;96581.72;4963250;28;20075;-43
2022/10/16 08:54:33;;;;;;;2.73;2.13;;;;;;;24.53;100.00;96587.09;4965252;28;20090;-47
2022/10/16 08:57:09;;;;;;;4.47;2.10;;;;;;;26.20;98.27;96588.56;4966652;28;21055;-48
2022/10/16 08:59:37;;;;;;;3.00;2.00;;;;;;;26.16;97.27;96587.41;4964160;28;20078;-43
2022/10/16 09:02:23;;;;;;;3.03;2.03;;;;;;;26.56;88.39;96583.84;4968946;28;20078;-47
2022/10/16 09:05:01;;;;;;;2.80;2.10;;;;;;;26.25;94.84;96589.44;4973572;28;20082;-51
2022/10/16 09:07:34;;;;;;;3.53;2.10;;;;;;;26.80;84.63;96589.94;4971215;28;20086;-43
2022/10/16 09:10:16;;;;;;;5.00;2.10;;;;;;;26.25;88.95;96589.44;4972660;28;20074;-44
2022/10/16 09:12:56;;;;;;;5.95;2.00;;;;;;;27.04;85.49;96586.00;4972035;28;20078;-52
2022/10/16 09:15:30;;;;;;;5.93;2.22;;;;;;;27.38;84.57;96589.56;4967426;28;20090;-46
2022/10/16 09:18:02;;;;;;;2.40;1.95;;;;;;;26.52;94.52;96583.50;4961764;28;20347;-54
2022/10/16 09:20:35;;;;;;;4.13;2.00;;;;;;;26.72;92.16;96578.44;4970050;28;20170;-44
2022/10/16 09:23:16;;;;;;;3.55;2.20;;;;;;;26.55;89.93;96585.72;4965545;28;20075;-46
2022/10/16 09:25:44;;;;;;;;;;;;;;;26.55;96.20;96579.50;4967678;28;20082;-48
2022/10/16 09:28:13;;;;;;;5.32;1.80;;;;;;;27.12;90.09;96582.09;4965441;28;19961;-45
2022/10/16 09:30:41;;;;;;;2.03;1.77;;;;;;;27.23;88.44;96586.63;4963505;28;20083;-45
2022/10/16 09:33:11;;;;;;;2.65;1.65;;;;;;;28.07;74.38;96582.91;4966946;28;20090;-46
2022/10/16 09:35:41;;;;;;;6.43;1.95;;;;;;;27.78;82.35;96583.09;4965934;28;20075;-44
2022/10/16 09:38:10;;;;;;;1.77;1.67;;;;;;;26.55;89.67;96593.03;4970328;28;20086;-44
2022/10/16 09:40:42;;;;;;;2.83;1.67;;;;;;;28.16;77.01;96584.94;4965298;28;20127;-45
2022/10/16 09:43:21;;;;;;;2.72;1.80;;;;;;;28.57;74.97;96588.13;4968926;28;20087;-46
2022/10/16 09:45:59;;;;;;;2.33;1.70;;;;;;;28.55;77.61;96587.53;4970065;28;20078;-50
2022/10/16 09:48:32;;;;;;;4.13;1.90;;;;;;;28.42;73.84;96595.25;4967233;28;20521;-44
2022/10/16 09:51:02;;;;;;;3.08;1.70;;;;;;;28.61;67.16;96607.41;4967814;28;20090;-47
2022/10/16 09:53:40;;;;;;;3.72;1.80;;;;;;;28.24;71.33;96615.38;4970029;28;20386;-49
2022/10/16 09:56:13;;;;;;;4.03;1.73;;;;;;;27.42;75.58;96620.47;4967823;28;20514;-45
2022/10/16 09:58:51;;;;;;;3.67;1.75;;;;;;;27.81;79.32;96620.53;4969988;28;20070;-44
2022/10/16 10:01:20;;;;;;;2.53;1.90;;;;;;;28.37;73.87;96623.13;4967799;28;20441;-47
2022/10/16 10:03:49;;;;;;;6.88;2.00;;;;;;;28.81;71.48;96614.94;4962254;28;20078;-44
2022/10/16 10:06:22;;;;;;;2.13;1.60;;;;;;;28.76;71.71;96607.56;4965375;28;20541;-45
2022/10/16 10:09:01;;;;;;;4.47;1.83;;;;;;;28.46;73.20;96604.53;4969379;28;20069;-53
2022/10/16 10:11:45;;;;;;;2.65;1.58;;;;;;;28.75;70.88;96603.22;4968498;28;20094;-44
2022/10/16 10:14:23;;;;;;;4.10;1.80;;;;;;;28.46;72.28;96602.66;4967891;28;20085;-46
2022/10/16 10:16:52;;;;;;;5.45;1.80;;;;;;;29.17;67.68;96599.00;4962866;28;20086;-46
2022/10/16 10:19:23;;;;;;;2.28;1.73;;;;;;;28.50;77.82;96600.25;4967285;28;20489;-48
2022/10/16 10:21:55;;;;;;;3.58;1.90;;;;;;;28.86;66.31;96604.13;4967095;28;20078;-47
2022/10/16 10:24:23;;;;;;;2.72;1.90;;;;;;;29.49;62.09;96601.66;4964085;28;20066;-48
2022/10/16 10:26:57;;;;;;;1.92;1.73;;;;;;;29.99;58.29;96600.34;4967706;28;20058;-47
2022/10/16 10:29:32;;;;;;;3.40;1.65;;;;;;;29.87;56.13;96600.56;4968582;28;20552;-46
2022/10/16 10:32:08;;;;;;;3.13;1.90;;;;;;;29.66;63.55;96607.78;4966123;28;20077;-45
2022/10/16 10:34:48;;;;;;;2.13;1.65;;;;;;;30.04;62.48;96603.91;4966666;28;20484;-44
2022/10/16 10:37:32;;;;;;;2.83;1.95;;;;;;;29.64;64.58;96607.22;4968153;28;20078;-46
2022/10/16 10:40:09;;;;;;;2.13;1.70;;;;;;;30.00;63.04;96593.81;4965179;28;20074;-50
2022/10/16 10:42:47;;;;;;;3.67;1.75;;;;;;;29.43;57.72;96600.81;4966298;28;20106;-46
2022/10/16 10:45:24;;;;;;;3.53;1.83;;;;;;;29.80;59.82;96592.66;4967546;28;20082;-48
2022/10/16 10:48:05;;;;;;;3.95;1.60;;;;;;;30.51;53.42;96592.13;4965243;28;20074;-49
2022/10/16 10:50:39;;;;;;;1.88;1.65;;;;;;;30.68;53.80;96589.16;4968754;28;20074;-50
2022/10/16 10:53:13;;;;;;;2.88;1.73;;;;;;;29.90;56.16;96597.31;4966257;28;20468;-45
2022/10/16 10:55:46;;;;;;;3.17;1.83;;;;;;;30.13;59.76;96595.25;4964442;28;20078;-49
2022/10/16 10:58:49;;;;;;;5.63;1.83;;;;;;;30.04;62.10;96595.75;4967618;28;20093;-44
2022/10/16 11:01:18;;;;;;;3.67;1.90;;;;;;;30.64;57.50;96593.50;4969242;28;20085;-44
2022/10/16 11:04:00;;;;;;;3.17;1.98;;;;;;;30.84;53.14;96595.47;4968384;28;20816;-46
2022/10/16 11:06:31;;;;;;;2.72;1.70;;;;;;;30.23;50.55;96598.84;4967871;28;20585;-44
2022/10/16 11:09:03;;;;;;;3.67;1.70;;;;;;;29.92;51.52;96599.78;4965932;28;20075;-49
2022/10/16 11:11:35;;;;;;;2.47;1.80;;;;;;;30.49;50.39;96588.88;4966745;28;20074;-48
2022/10/16 11:14:10;;;;;;;3.65;1.60;;;;;;;30.98;46.37;96591.13;4960302;28;20074;-47
2022/10/16 11:16:41;;;;;;;2.53;1.40;;;;;;;30.20;47.36;96587.69;4966551;28;20086;-45
2022/10/16 11:19:13;;;;;;;2.38;1.60;;;;;;;30.70;48.31;96581.56;4966446;28;20085;-46
2022/10/16 11:21:48;;;;;;;5.35;1.70;;;;;;;31.29;45.69;96584.88;4965518;28;20074;-44
2022/10/16 11:24:21;;;;;;;4.07;1.20;;;;;;;30.07;43.55;96588.13;4964704;28;20086;-45
2022/10/16 11:26:51;;;;;;;2.55;1.10;;;;;;;29.70;45.52;96591.78;4964298;28;20281;-47
2022/10/16 11:29:25;;;;;;;1.17;1.05;;;;;;;30.32;41.88;96584.72;4968043;28;20066;-46
2022/10/16 11:31:56;;;;;;;2.42;1.00;;;;;;;30.22;41.98;96588.25;4963730;28;20078;-47
2022/10/16 11:34:29;;;;;;;2.00;1.20;;;;;;;30.34;41.56;96596.97;4967417;28;20074;-45
2022/10/16 11:37:08;;;;;;;2.33;1.20;;;;;;;30.49;40.64;96598.94;4965360;28;20073;-47
2022/10/16 11:39:39;;;;;;;2.05;0.80;;;;;;;30.20;40.97;96598.56;4966390;28;20454;-49
2022/10/16 11:42:12;;;;;;;1.60;1.00;;;;;;;30.24;40.03;96599.66;4965868;28;20091;-44
2022/10/16 11:44:49;;;;;;;1.08;0.98;;;;;;;30.10;41.88;96604.75;4967101;28;20459;-45
2022/10/16 11:47:26;;;;;;;1.45;1.00;;;;;;;30.43;40.10;96603.53;4965696;28;20481;-46